Time;durP1;ratioP1;P1;durP2;ratioP2;P2;SDS_P1;SDS_P2;PMS_P1;PMS_P2;Temp;Humidity;BMP_temperature;BMP_pressure;BME280_temperature;BME280_humidity;BME280_pressure;Samples;Min_cycle;Max_cycle;Signal;HPM_P1;HPM_P2
2022/07/25 00:00:15;;;;;;;16.50;14.90;;;;;;;23.35;78.03;97935.06;4109041;28;20650;-81
2022/07/25 00:02:18;;;;;;;15.70;14.20;;;;;;;23.33;77.79;97939.72;4127916;28;20652;-80
2022/07/25 00:04:22;;;;;;;16.03;14.63;;;;;;;23.28;78.07;97929.63;4108937;28;20737;-81
2022/07/25 00:06:25;;;;;;;16.30;14.70;;;;;;;23.26;78.57;97931.66;4108664;28;21298;-81
2022/07/25 00:08:28;;;;;;;16.20;14.57;;;;;;;23.23;78.54;97926.72;4125858;28;21307;-81
2022/07/25 00:10:31;;;;;;;16.27;14.77;;;;;;;23.21;78.28;97925.25;4110078;28;20646;-81
2022/07/25 00:12:34;;;;;;;17.10;15.50;;;;;;;23.19;78.70;97926.47;4111365;28;20667;-81
2022/07/25 00:14:37;;;;;;;15.93;14.43;;;;;;;23.15;78.63;97927.84;4126808;28;20653;-81
2022/07/25 00:16:42;;;;;;;16.17;14.50;;;;;;;23.12;78.67;97926.34;4123625;28;20633;-81
2022/07/25 00:18:45;;;;;;;16.33;14.83;;;;;;;23.08;78.63;97927.75;4125748;28;20650;-81
2022/07/25 00:20:49;;;;;;;16.90;15.40;;;;;;;23.04;78.24;97921.16;4123551;28;21235;-81
2022/07/25 00:22:52;;;;;;;16.17;14.63;;;;;;;23.03;78.42;97919.47;4126268;28;21490;-81
2022/07/25 00:24:55;;;;;;;16.93;15.33;;;;;;;23.01;79.00;97918.84;4108840;28;21049;-81
2022/07/25 00:26:58;;;;;;;15.60;14.30;;;;;;;22.99;78.71;97925.41;4110495;28;20651;-81
2022/07/25 00:29:01;;;;;;;16.37;14.87;;;;;;;22.97;78.80;97914.94;4127659;28;20624;-81
2022/07/25 00:31:04;;;;;;;15.77;14.30;;;;;;;22.92;78.19;97913.78;4111752;28;21040;-81
2022/07/25 00:33:09;;;;;;;16.47;14.97;;;;;;;22.90;78.92;97921.97;4108401;28;20637;-80
2022/07/25 00:35:12;;;;;;;20.37;15.60;;;;;;;22.87;78.74;97918.84;4126239;28;20663;-81
2022/07/25 00:37:15;;;;;;;16.40;14.90;;;;;;;22.85;79.50;97912.88;4092273;28;21119;-81
2022/07/25 00:39:18;;;;;;;17.03;15.43;;;;;;;22.81;79.42;97920.41;4109198;28;21272;-81
2022/07/25 00:41:21;;;;;;;15.70;14.20;;;;;;;22.79;79.88;97916.28;4106019;28;20635;-81
2022/07/25 00:43:24;;;;;;;17.20;15.50;;;;;;;22.77;79.95;97912.97;4109550;28;20638;-81
2022/07/25 00:45:28;;;;;;;16.10;14.57;;;;;;;22.73;79.62;97919.66;4123521;28;20626;-81
2022/07/25 00:47:31;;;;;;;17.13;15.57;;;;;;;22.70;79.25;97917.38;4095600;28;21081;-81
2022/07/25 00:49:35;;;;;;;16.67;15.13;;;;;;;22.68;79.40;97913.25;4111051;28;20647;-81
2022/07/25 00:51:38;;;;;;;16.73;15.07;;;;;;;22.65;79.80;97922.44;4127521;28;20640;-81
2022/07/25 00:53:41;;;;;;;15.50;14.10;;;;;;;22.62;79.44;97914.81;4110038;28;20630;-81
2022/07/25 00:55:45;;;;;;;16.23;14.60;;;;;;;22.58;80.07;97918.88;4107454;28;20640;-81
2022/07/25 00:57:48;;;;;;;17.07;15.37;;;;;;;22.54;80.08;97922.06;4122624;28;20662;-81
2022/07/25 00:59:51;;;;;;;16.17;14.67;;;;;;;22.48;79.75;97920.97;4123138;28;20650;-81
2022/07/25 01:01:54;;;;;;;16.10;14.50;;;;;;;22.47;80.00;97921.94;4113092;28;21225;-81
2022/07/25 01:03:57;;;;;;;16.63;15.10;;;;;;;22.45;80.22;97918.66;4126311;28;20652;-81
2022/07/25 01:06:02;;;;;;;15.73;14.23;;;;;;;22.43;80.82;97914.53;4127007;28;20756;-81
2022/07/25 01:08:06;;;;;;;17.53;15.77;;;;;;;22.40;80.43;97910.41;4108970;28;21083;-81
2022/07/25 01:10:11;;;;;;;18.20;16.30;;;;;;;22.38;80.10;97909.75;4125232;28;20692;-81
2022/07/25 01:12:14;;;;;;;16.93;15.23;;;;;;;22.37;80.60;97902.81;4110639;28;20656;-81
2022/07/25 01:14:17;;;;;;;17.63;15.93;;;;;;;22.36;80.78;97909.13;4123774;28;20642;-81
2022/07/25 01:16:20;;;;;;;17.03;15.33;;;;;;;22.34;81.01;97907.63;4107929;28;20646;-81
2022/07/25 01:18:23;;;;;;;18.17;16.37;;;;;;;22.32;80.70;97907.00;4111633;28;21072;-81
2022/07/25 01:20:29;;;;;;;16.90;15.30;;;;;;;22.29;81.07;97910.03;4111263;28;20673;-80
2022/07/25 01:22:32;;;;;;;16.83;15.27;;;;;;;22.25;80.72;97912.22;4107903;28;21211;-81
2022/07/25 01:24:35;;;;;;;15.57;14.17;;;;;;;22.23;80.94;97919.53;4111429;28;20642;-81
2022/07/25 01:26:38;;;;;;;17.60;15.80;;;;;;;22.22;80.66;97917.06;4114238;28;20635;-81
2022/07/25 01:28:41;;;;;;;17.70;15.90;;;;;;;22.18;81.12;97909.63;4126700;28;20639;-81
2022/07/25 01:30:44;;;;;;;17.20;15.60;;;;;;;22.16;81.45;97912.47;4127472;28;20642;-81
2022/07/25 01:32:48;;;;;;;16.83;15.23;;;;;;;22.14;81.33;97908.31;4110736;28;21208;-81
2022/07/25 01:34:51;;;;;;;16.40;14.70;;;;;;;22.12;81.34;97902.38;4123332;28;21209;-82
2022/07/25 01:36:55;;;;;;;17.10;15.50;;;;;;;22.10;81.53;97905.22;4125128;28;21317;-81
2022/07/25 01:38:58;;;;;;;16.90;15.20;;;;;;;22.09;80.75;97900.06;4126634;28;20653;-81
2022/07/25 01:41:02;;;;;;;16.67;15.10;;;;;;;22.07;81.38;97896.75;4110573;28;21208;-81
2022/07/25 01:43:05;;;;;;;16.33;14.83;;;;;;;22.05;81.69;97899.59;4108715;28;20649;-81
2022/07/25 01:45:09;;;;;;;16.27;14.67;;;;;;;22.03;82.00;97895.47;4110196;28;21001;-81
2022/07/25 01:47:12;;;;;;;16.50;15.00;;;;;;;22.02;81.27;97896.47;4108088;28;20637;-81
2022/07/25 01:49:15;;;;;;;17.60;15.83;;;;;;;22.00;82.02;97896.66;4121619;28;20709;-81
2022/07/25 01:51:18;;;;;;;17.83;16.03;;;;;;;21.98;81.43;97896.00;4109609;28;20637;-82
2022/07/25 01:53:23;;;;;;;16.70;15.10;;;;;;;21.96;82.07;97905.97;4126949;28;21032;-81
2022/07/25 01:55:28;;;;;;;16.83;15.23;;;;;;;21.95;81.49;97898.19;4105939;28;20777;-81
2022/07/25 01:57:32;;;;;;;16.80;15.10;;;;;;;21.92;82.53;97894.06;4104705;28;20640;-81
2022/07/25 01:59:39;;;;;;;16.63;14.93;;;;;;;21.89;82.04;97888.28;4124637;28;20741;-81
2022/07/25 02:01:42;;;;;;;18.13;16.33;;;;;;;21.86;82.30;97889.47;4109068;28;20632;-81
2022/07/25 02:03:46;;;;;;;17.60;15.90;;;;;;;21.83;82.14;97894.31;4125502;28;20644;-81
2022/07/25 02:05:49;;;;;;;17.17;15.47;;;;;;;21.80;81.95;97890.19;4126212;28;20639;-80
2022/07/25 02:07:52;;;;;;;17.70;15.80;;;;;;;21.78;81.62;97886.06;4126167;28;20630;-81
2022/07/25 02:09:56;;;;;;;17.27;15.57;;;;;;;21.77;82.76;97887.91;4110871;28;20640;-81
2022/07/25 02:11:59;;;;;;;17.03;15.33;;;;;;;21.76;82.41;97888.06;4127990;28;20716;-81
2022/07/25 02:14:03;;;;;;;17.47;15.67;;;;;;;21.72;81.98;97880.63;4125290;28;20692;-81
2022/07/25 02:16:06;;;;;;;16.50;14.80;;;;;;;21.68;82.56;97882.84;4111848;28;20647;-81
2022/07/25 02:18:09;;;;;;;17.90;16.20;;;;;;;21.64;82.97;97872.75;4127410;28;20691;-81
2022/07/25 02:20:12;;;;;;;16.70;15.20;;;;;;;21.62;83.02;97869.41;4112651;28;20647;-81
2022/07/25 02:22:15;;;;;;;17.97;16.13;;;;;;;21.59;83.17;97865.31;4128081;28;20693;-81
2022/07/25 02:24:19;;;;;;;18.57;16.00;;;;;;;21.59;83.15;97865.31;4110138;28;21220;-81
2022/07/25 02:26:23;;;;;;;21.50;16.83;;;;;;;21.57;82.41;97862.00;4128444;28;21077;-81
2022/07/25 02:28:27;;;;;;;17.90;16.10;;;;;;;21.55;82.78;97869.31;4123141;28;20662;-81
2022/07/25 02:30:30;;;;;;;18.93;17.13;;;;;;;21.52;82.95;97867.00;4124160;28;20741;-80
2022/07/25 02:32:33;;;;;;;17.80;16.00;;;;;;;21.46;83.48;97865.06;4109560;28;20658;-81
2022/07/25 02:34:36;;;;;;;16.93;15.33;;;;;;;21.47;83.58;97868.53;4121980;28;20750;-81
2022/07/25 02:36:39;;;;;;;17.57;15.90;;;;;;;21.45;83.14;97874.03;4111881;28;21024;-81
2022/07/25 02:38:42;;;;;;;18.23;16.40;;;;;;;21.41;83.61;97867.41;4115120;28;21265;-81
2022/07/25 02:40:45;;;;;;;18.40;16.60;;;;;;;21.41;83.41;97867.41;4129544;28;20632;-81
2022/07/25 02:42:50;;;;;;;17.47;15.87;;;;;;;21.39;83.97;97869.41;4112266;28;20644;-81
2022/07/25 02:44:53;;;;;;;17.80;16.17;;;;;;;21.39;83.78;97865.91;4115603;28;20649;-81
2022/07/25 02:46:56;;;;;;;17.83;16.03;;;;;;;21.36;83.97;97860.97;4128829;28;20645;-81
2022/07/25 02:48:59;;;;;;;18.50;16.60;;;;;;;21.33;83.89;97859.50;4113300;28;20621;-81
2022/07/25 02:51:03;;;;;;;17.13;15.40;;;;;;;21.31;83.26;97850.06;4115808;28;21059;-81
2022/07/25 02:53:06;;;;;;;17.97;16.27;;;;;;;21.29;84.40;97855.53;4116522;28;20641;-81
2022/07/25 02:55:10;;;;;;;18.27;16.47;;;;;;;21.27;84.24;97854.06;4131021;28;20700;-81
2022/07/25 02:57:13;;;;;;;18.43;16.60;;;;;;;21.25;83.64;97850.75;4113628;28;21233;-81
2022/07/25 02:59:18;;;;;;;17.97;16.30;;;;;;;21.23;84.11;97850.13;4110509;28;20746;-81
2022/07/25 03:01:21;;;;;;;18.70;16.73;;;;;;;21.23;83.81;97844.81;4129333;28;20676;-81
2022/07/25 03:03:24;;;;;;;19.27;17.30;;;;;;;21.21;84.47;97852.09;4130695;28;20663;-81
2022/07/25 03:05:27;;;;;;;17.43;15.87;;;;;;;21.20;83.66;97846.97;4117393;28;20640;-81
2022/07/25 03:07:31;;;;;;;18.23;16.43;;;;;;;21.19;84.99;97845.34;4127549;28;20705;-81
2022/07/25 03:09:34;;;;;;;19.77;17.80;;;;;;;21.18;84.55;97846.34;4115796;28;20672;-81
2022/07/25 03:11:37;;;;;;;18.03;16.20;;;;;;;21.16;84.30;97848.34;4115065;28;20636;-81
2022/07/25 03:13:40;;;;;;;19.67;17.70;;;;;;;21.13;84.86;97849.50;4114411;28;21023;-81
2022/07/25 03:15:45;;;;;;;18.47;16.30;;;;;;;21.12;83.91;97850.50;4112252;28;20729;-81
2022/07/25 03:17:48;;;;;;;19.17;17.27;;;;;;;21.09;83.79;97844.72;4129711;28;20652;-81
2022/07/25 03:19:51;;;;;;;17.67;15.97;;;;;;;21.08;83.88;97848.38;4126962;28;20677;-81
2022/07/25 03:21:54;;;;;;;19.60;17.60;;;;;;;21.06;84.12;97847.75;4113629;28;20647;-81
2022/07/25 03:23:57;;;;;;;20.70;17.53;;;;;;;21.05;83.95;97851.38;4130052;28;20671;-81
2022/07/25 03:26:00;;;;;;;19.10;17.30;;;;;;;21.02;85.10;97849.09;4131285;28;20636;-81
2022/07/25 03:28:04;;;;;;;19.83;17.37;;;;;;;21.01;84.43;97848.25;4129014;28;21270;-81
2022/07/25 03:30:08;;;;;;;18.83;17.07;;;;;;;21.00;83.94;97846.63;4132071;28;20641;-81
2022/07/25 03:32:13;;;;;;;19.00;17.10;;;;;;;20.99;85.14;97841.50;4114660;28;20637;-80
2022/07/25 03:34:16;;;;;;;18.57;16.77;;;;;;;20.97;84.76;97841.66;4127645;28;20664;-81
2022/07/25 03:36:19;;;;;;;18.83;16.93;;;;;;;20.95;84.71;97837.53;4113225;28;20629;-81
2022/07/25 03:38:23;;;;;;;18.90;16.80;;;;;;;20.94;85.39;97834.06;4113095;28;20700;-81
2022/07/25 03:40:26;;;;;;;18.90;17.00;;;;;;;20.94;84.45;97835.88;4114294;28;20675;-81
2022/07/25 03:42:29;;;;;;;18.90;16.77;;;;;;;20.93;83.99;97831.59;4111068;28;20638;-81
2022/07/25 03:44:37;;;;;;;19.40;17.37;;;;;;;20.91;85.27;97820.31;4115858;28;21288;-81
2022/07/25 03:46:40;;;;;;;22.60;16.97;;;;;;;20.90;84.58;97818.69;4115334;28;20633;-81
2022/07/25 03:48:45;;;;;;;19.47;16.97;;;;;;;20.88;84.44;97816.19;4113170;28;21019;-81
2022/07/25 03:50:48;;;;;;;19.73;17.63;;;;;;;20.86;85.40;97812.06;4111033;28;21015;-81
2022/07/25 03:52:51;;;;;;;19.23;17.27;;;;;;;20.85;84.97;97811.25;4110139;28;20633;-81
2022/07/25 03:54:54;;;;;;;19.43;17.53;;;;;;;20.85;84.81;97810.41;4126324;28;20644;-81
2022/07/25 03:56:57;;;;;;;18.93;16.93;;;;;;;20.86;84.31;97801.44;4124241;28;20663;-82
2022/07/25 03:59:00;;;;;;;18.63;16.73;;;;;;;20.88;84.73;97805.59;4107339;28;21052;-81
2022/07/25 04:01:03;;;;;;;19.53;17.73;;;;;;;20.87;85.82;97803.13;4112480;28;20645;-81
2022/07/25 04:03:12;;;;;;;18.93;17.03;;;;;;;20.86;84.65;97799.63;4127188;28;21241;-81
2022/07/25 04:05:17;;;;;;;19.40;17.40;;;;;;;20.88;84.83;97802.94;4112239;28;20634;-81
2022/07/25 04:07:20;;;;;;;19.97;17.33;;;;;;;20.88;85.44;97802.94;4124752;28;20666;-81
2022/07/25 04:09:23;;;;;;;17.67;15.87;;;;;;;20.87;85.74;97800.47;4126631;28;20625;-81
2022/07/25 04:11:26;;;;;;;18.27;16.57;;;;;;;20.87;84.13;97805.75;4110934;28;21206;-80
2022/07/25 04:13:30;;;;;;;17.97;16.27;;;;;;;20.85;85.77;97792.69;4108584;28;20663;-81
2022/07/25 04:15:33;;;;;;;19.53;17.73;;;;;;;20.85;85.33;97789.19;4125876;28;20666;-81
2022/07/25 04:17:36;;;;;;;17.97;16.23;;;;;;;20.86;84.50;97791.66;4111620;28;20644;-80
2022/07/25 04:19:41;;;;;;;19.37;17.60;;;;;;;20.87;85.62;97795.16;4127954;28;21037;-81
2022/07/25 04:21:47;;;;;;;19.03;17.13;;;;;;;20.87;85.84;97792.50;4109962;28;20669;-81
2022/07/25 04:23:50;;;;;;;19.70;17.70;;;;;;;20.87;84.82;97795.97;4109569;28;20688;-81
2022/07/25 04:25:53;;;;;;;19.07;17.17;;;;;;;20.90;85.34;97800.09;4092360;28;20625;-81
2022/07/25 04:27:56;;;;;;;20.17;17.97;;;;;;;20.89;84.35;97793.16;4123240;28;21222;-81
2022/07/25 04:30:00;;;;;;;19.57;17.60;;;;;;;20.91;85.54;97797.28;4110893;28;20645;-81
2022/07/25 04:32:03;;;;;;;20.20;18.20;;;;;;;20.93;85.66;97797.09;4108210;28;20699;-81
2022/07/25 04:34:06;;;;;;;19.93;17.80;;;;;;;20.96;84.07;97788.81;4125203;28;20632;-80
2022/07/25 04:36:10;;;;;;;20.27;18.33;;;;;;;20.99;84.08;97791.09;4126230;28;20686;-80
2022/07/25 04:38:15;;;;;;;19.73;17.73;;;;;;;21.02;84.75;97798.72;4111992;28;20636;-81
2022/07/25 04:40:18;;;;;;;19.47;17.57;;;;;;;21.05;83.96;97799.16;4125864;28;20714;-81
2022/07/25 04:42:21;;;;;;;18.90;17.03;;;;;;;21.08;84.25;97801.47;4126994;28;20990;-81
2022/07/25 04:44:24;;;;;;;19.50;17.60;;;;;;;21.12;84.37;97796.63;4124935;28;20647;-81
2022/07/25 04:46:27;;;;;;;20.90;18.80;;;;;;;21.16;84.37;97792.63;4111386;28;20668;-81
2022/07/25 04:48:30;;;;;;;18.63;16.87;;;;;;;21.19;84.83;97792.28;4129025;28;20636;-80
2022/07/25 04:50:33;;;;;;;19.63;17.60;;;;;;;21.23;84.47;97790.91;4125628;28;21078;-81
2022/07/25 04:52:36;;;;;;;19.60;17.53;;;;;;;21.27;83.89;97794.88;4110606;28;20634;-81
2022/07/25 04:54:41;;;;;;;20.00;18.00;;;;;;;21.31;83.86;97792.50;4126910;28;20672;-80
2022/07/25 04:56:44;;;;;;;19.03;17.13;;;;;;;21.33;83.78;97790.50;4123921;28;21198;-81
2022/07/25 04:58:48;;;;;;;19.07;17.03;;;;;;;21.36;83.67;97790.16;4126225;28;20742;-81
2022/07/25 05:00:51;;;;;;;18.47;16.47;;;;;;;21.40;83.60;97795.91;4125340;28;20656;-80
2022/07/25 05:02:54;;;;;;;18.47;16.57;;;;;;;21.43;83.02;97792.91;4108427;28;21198;-80
2022/07/25 05:04:57;;;;;;;19.73;17.83;;;;;;;21.45;83.07;97794.38;4124627;28;20649;-81
2022/07/25 05:07:04;;;;;;;20.37;18.27;;;;;;;21.49;83.08;97789.56;4124848;28;20667;-81
2022/07/25 05:09:07;;;;;;;19.47;17.53;;;;;;;21.55;83.10;97799.47;4123955;28;20734;-81
2022/07/25 05:11:12;;;;;;;19.93;17.90;;;;;;;21.59;84.04;97801.59;4126164;28;20642;-81
2022/07/25 05:13:15;;;;;;;18.50;16.80;;;;;;;21.64;83.62;97793.09;4124409;28;21066;-81
2022/07/25 05:15:18;;;;;;;23.37;19.07;;;;;;;21.66;83.71;97791.88;4126605;28;21176;-81
2022/07/25 05:17:21;;;;;;;19.00;17.03;;;;;;;21.72;82.94;97795.66;4124991;28;20655;-81
2022/07/25 05:19:25;;;;;;;18.27;16.47;;;;;;;21.78;82.86;97787.78;4125685;28;20647;-81
2022/07/25 05:21:28;;;;;;;19.10;17.10;;;;;;;21.85;83.97;97796.69;4107840;28;20683;-81
2022/07/25 05:23:31;;;;;;;20.00;18.10;;;;;;;21.89;83.22;97796.16;4110510;28;20649;-81
2022/07/25 05:25:34;;;;;;;18.20;16.40;;;;;;;21.96;83.64;97794.41;4111668;28;20636;-80
2022/07/25 05:27:39;;;;;;;20.37;18.40;;;;;;;21.98;81.73;97791.56;4095003;28;20655;-81
2022/07/25 05:29:42;;;;;;;20.23;17.90;;;;;;;22.03;81.97;97795.31;4109869;28;20638;-81
2022/07/25 05:31:45;;;;;;;19.70;17.73;;;;;;;22.08;82.15;97797.44;4106811;28;20642;-81
2022/07/25 05:33:48;;;;;;;20.10;18.00;;;;;;;22.16;82.37;97792.03;4111363;28;20678;-81
2022/07/25 05:35:52;;;;;;;18.00;16.10;;;;;;;22.25;82.43;97795.28;4109894;28;21330;-81
2022/07/25 05:37:55;;;;;;;19.00;17.20;;;;;;;22.31;81.58;97805.19;4122816;28;21271;-81
2022/07/25 05:39:58;;;;;;;19.00;17.10;;;;;;;22.34;81.10;97796.81;4114393;28;20645;-80
2022/07/25 05:42:01;;;;;;;19.70;17.70;;;;;;;22.43;81.24;97798.38;4113039;28;20661;-79
2022/07/25 05:44:06;;;;;;;19.50;17.57;;;;;;;22.58;80.90;97785.91;4109799;28;20634;-80
2022/07/25 05:46:09;;;;;;;19.03;16.90;;;;;;;22.84;80.50;97796.84;4111191;28;20650;-78
2022/07/25 05:48:13;;;;;;;19.37;17.47;;;;;;;23.12;79.55;97790.59;4109215;28;20641;-82
2022/07/25 05:50:16;;;;;;;19.30;17.50;;;;;;;23.43;79.04;97794.59;4095128;28;20679;-82
2022/07/25 05:52:19;;;;;;;19.97;17.87;;;;;;;23.70;77.64;97792.00;4123854;28;20664;-81
2022/07/25 05:54:23;;;;;;;20.00;18.13;;;;;;;24.04;77.67;97800.06;4113964;28;20770;-86
2022/07/25 05:56:40;;;;;;;20.93;18.73;;;;;;;24.44;77.14;97799.28;4109011;28;20647;-84
2022/07/25 05:58:44;;;;;;;18.77;16.87;;;;;;;24.83;76.93;97800.28;4108849;28;20669;-82
2022/07/25 06:00:49;;;;;;;18.83;17.03;;;;;;;25.16;75.60;97805.53;4089419;28;20683;-80
2022/07/25 06:02:53;;;;;;;19.07;17.23;;;;;;;25.45;73.76;97807.84;4106309;28;20636;-80
2022/07/25 06:04:56;;;;;;;18.13;16.40;;;;;;;25.77;74.48;97801.72;4110899;28;20730;-81
2022/07/25 06:06:59;;;;;;;18.53;16.83;;;;;;;26.05;73.78;97803.16;4111629;28;20658;-80
2022/07/25 06:09:02;;;;;;;18.40;16.50;;;;;;;26.29;72.14;97806.00;4111848;28;20646;-80
2022/07/25 06:11:10;;;;;;;17.70;16.10;;;;;;;26.53;71.32;97808.00;4108799;28;20635;-80
2022/07/25 06:13:13;;;;;;;17.57;15.90;;;;;;;26.81;71.35;97806.69;4107499;28;20631;-81
2022/07/25 06:15:16;;;;;;;18.73;16.93;;;;;;;27.08;70.43;97801.03;4123364;28;20643;-80
2022/07/25 06:17:29;;;;;;;18.47;16.70;;;;;;;27.44;70.56;97801.22;4124147;28;20645;-80
2022/07/25 06:19:34;;;;;;;19.07;17.27;;;;;;;27.70;69.21;97798.38;4111597;28;21001;-80
2022/07/25 06:21:37;;;;;;;19.60;17.27;;;;;;;27.91;68.54;97793.44;4124042;28;21234;-80
2022/07/25 06:23:40;;;;;;;18.10;16.40;;;;;;;28.13;67.77;97792.84;4106587;28;21209;-80
2022/07/25 06:25:45;;;;;;;18.30;16.40;;;;;;;28.39;68.30;97787.22;4116021;28;20640;-80
2022/07/25 06:27:52;;;;;;;18.70;16.80;;;;;;;28.67;67.35;97788.38;4124219;28;20633;-81
2022/07/25 06:29:55;;;;;;;18.23;16.40;;;;;;;28.90;67.45;97793.03;4108035;28;20628;-81
2022/07/25 06:31:58;;;;;;;18.00;16.50;;;;;;;29.08;67.71;97786.59;4107926;28;20648;-81
2022/07/25 06:34:03;;;;;;;17.63;15.70;;;;;;;29.27;66.42;97784.69;4111412;28;20702;-80
2022/07/25 06:36:07;;;;;;;18.03;16.30;;;;;;;29.44;66.67;97781.13;4123592;28;20629;-80
2022/07/25 06:38:10;;;;;;;17.80;16.10;;;;;;;29.67;66.50;97786.56;4126743;28;20647;-81
2022/07/25 06:40:13;;;;;;;18.07;16.27;;;;;;;29.85;65.05;97781.13;4123891;28;20650;-80
2022/07/25 06:42:16;;;;;;;17.30;15.80;;;;;;;30.06;64.96;97784.06;4109817;28;21002;-80
2022/07/25 06:44:19;;;;;;;16.87;15.17;;;;;;;30.30;64.55;97778.44;4092456;28;20641;-80
2022/07/25 06:46:22;;;;;;;16.47;14.73;;;;;;;30.51;62.46;97775.16;4122990;28;20640;-81
2022/07/25 06:48:25;;;;;;;18.50;16.43;;;;;;;30.69;62.29;97775.03;4109635;28;20637;-80
2022/07/25 06:50:30;;;;;;;16.13;14.63;;;;;;;30.90;62.91;97774.38;4126146;28;20666;-81
2022/07/25 06:52:33;;;;;;;16.20;14.60;;;;;;;31.17;62.95;97782.50;4123509;28;21212;-81
2022/07/25 06:54:36;;;;;;;16.93;15.30;;;;;;;31.46;62.76;97776.84;4109174;28;20960;-81
2022/07/25 06:56:40;;;;;;;15.37;14.07;;;;;;;31.71;60.83;97774.59;4124372;28;20642;-81
2022/07/25 06:58:43;;;;;;;13.83;12.50;;;;;;;31.98;61.74;97781.84;4110870;28;20741;-81
2022/07/25 07:00:49;;;;;;;14.97;13.63;;;;;;;32.24;59.41;97772.25;4109046;28;20756;-81
2022/07/25 07:02:54;;;;;;;14.20;12.90;;;;;;;32.43;58.19;97772.56;4125347;28;20698;-81
2022/07/25 07:04:59;;;;;;;14.00;12.70;;;;;;;32.63;57.12;97780.94;4124631;28;21363;-81
2022/07/25 07:07:04;;;;;;;14.63;13.33;;;;;;;32.78;58.21;97783.84;4107432;28;21044;-81
2022/07/25 07:09:07;;;;;;;14.73;13.53;;;;;;;32.92;57.99;97782.38;4110110;28;20691;-81
2022/07/25 07:11:12;;;;;;;14.33;13.23;;;;;;;33.08;58.49;97773.41;4126384;28;20671;-81
2022/07/25 07:13:17;;;;;;;13.47;12.27;;;;;;;33.30;57.30;97776.91;4124042;28;21050;-81
2022/07/25 07:15:26;;;;;;;14.80;13.50;;;;;;;33.51;56.53;97768.75;4124262;28;20722;-81
2022/07/25 07:17:29;;;;;;;14.23;13.13;;;;;;;33.63;56.57;97764.78;4124462;28;20650;-81
2022/07/25 07:19:32;;;;;;;14.47;13.07;;;;;;;33.77;55.31;97771.44;4094526;28;20651;-81
2022/07/25 07:21:35;;;;;;;14.30;12.80;;;;;;;33.92;55.57;97760.72;4092788;28;20688;-82
2022/07/25 07:23:40;;;;;;;14.17;12.97;;;;;;;34.07;55.04;97769.81;4111426;28;20632;-82
2022/07/25 07:25:44;;;;;;;13.67;12.67;;;;;;;34.13;54.89;97763.34;4112485;28;20640;-82
2022/07/25 07:27:48;;;;;;;14.03;12.63;;;;;;;34.19;55.11;97762.31;4110184;28;20640;-82
2022/07/25 07:29:51;;;;;;;14.27;12.87;;;;;;;34.35;54.28;97755.91;4123585;28;20987;-82
2022/07/25 07:31:54;;;;;;;14.43;13.23;;;;;;;34.54;54.14;97759.84;4127301;28;20690;-82
2022/07/25 07:33:58;;;;;;;13.60;12.50;;;;;;;34.70;53.02;97759.63;4124833;28;22072;-82
2022/07/25 07:36:01;;;;;;;14.10;12.90;;;;;;;34.81;52.93;97761.31;4108949;28;20670;-81
2022/07/25 07:38:04;;;;;;;14.57;13.37;;;;;;;34.91;52.29;97756.78;4108257;28;20647;-80
2022/07/25 07:40:10;;;;;;;12.77;11.77;;;;;;;35.03;53.75;97753.81;4109743;28;20637;-81
2022/07/25 07:42:19;;;;;;;13.90;12.80;;;;;;;35.15;54.41;97757.13;4128126;28;20655;-80
2022/07/25 07:44:23;;;;;;;12.93;11.93;;;;;;;35.30;53.67;97747.94;4111335;28;20636;-81
2022/07/25 07:46:26;;;;;;;13.43;12.33;;;;;;;35.38;52.88;97752.88;4123448;28;20632;-80
2022/07/25 07:48:30;;;;;;;15.10;13.83;;;;;;;35.49;52.15;97748.28;4105160;28;20774;-82
2022/07/25 07:50:33;;;;;;;15.00;13.60;;;;;;;35.56;51.64;97748.81;4125075;28;20642;-81
2022/07/25 07:52:37;;;;;;;13.43;12.33;;;;;;;35.73;52.24;97749.38;4110911;28;20639;-83
2022/07/25 07:57:02;;;;;;;13.70;12.50;;;;;;;35.88;53.05;97739.34;4127563;28;20702;-82
2022/07/25 07:59:06;;;;;;;15.07;13.77;;;;;;;35.96;51.59;97745.03;4109598;28;21055;-83
2022/07/25 08:01:09;;;;;;;14.47;13.27;;;;;;;35.86;51.48;97742.34;4128111;28;20635;-83
2022/07/25 08:03:13;;;;;;;13.50;12.50;;;;;;;35.71;51.22;97737.94;4129216;28;20666;-82
2022/07/25 08:05:21;;;;;;;13.53;12.30;;;;;;;35.70;52.74;97734.44;4104761;28;20644;-81
2022/07/25 08:07:24;;;;;;;13.20;12.20;;;;;;;35.78;51.57;97725.72;4103457;28;21316;-81
2022/07/25 08:09:27;;;;;;;14.10;12.93;;;;;;;35.88;51.68;97734.72;4127507;28;20631;-81
2022/07/25 08:11:30;;;;;;;14.27;13.00;;;;;;;36.00;51.25;97726.31;4127593;28;20638;-81
2022/07/25 08:13:36;;;;;;;14.10;12.93;;;;;;;35.93;51.26;97728.47;4128331;28;21236;-81
2022/07/25 08:15:40;;;;;;;13.50;12.40;;;;;;;35.88;51.62;97723.84;4109525;28;20637;-81
2022/07/25 08:17:43;;;;;;;13.87;12.70;;;;;;;35.94;51.67;97728.19;4125247;28;21011;-81
2022/07/25 08:19:47;;;;;;;14.10;12.70;;;;;;;36.02;49.97;97730.34;4123214;28;20642;-80
2022/07/25 08:21:50;;;;;;;13.70;12.60;;;;;;;36.06;51.74;97726.00;4097571;28;20741;-81
2022/07/25 08:23:53;;;;;;;14.67;13.47;;;;;;;36.19;51.31;97736.34;4130574;28;20655;-81
2022/07/25 08:25:56;;;;;;;14.00;12.77;;;;;;;36.15;50.39;97727.09;4123600;28;20644;-81
2022/07/25 08:27:59;;;;;;;14.33;13.20;;;;;;;36.15;51.55;97731.72;4124346;28;20642;-81
2022/07/25 08:30:05;;;;;;;14.97;13.67;;;;;;;36.11;50.81;97736.06;4109287;28;20688;-80
2022/07/25 08:32:08;;;;;;;12.87;11.77;;;;;;;36.23;51.71;97740.13;4106848;28;21341;-81
2022/07/25 08:34:12;;;;;;;13.37;12.30;;;;;;;36.30;50.43;97741.50;4126577;28;21106;-81
2022/07/25 08:36:15;;;;;;;14.60;13.10;;;;;;;36.37;50.43;97738.47;4109830;28;20683;-81
2022/07/25 08:38:19;;;;;;;14.13;13.00;;;;;;;36.44;50.54;97739.81;4124951;28;20643;-81
2022/07/25 08:40:24;;;;;;;14.80;13.60;;;;;;;36.49;50.53;97733.56;4127827;28;20634;-81
2022/07/25 08:42:27;;;;;;;15.60;14.10;;;;;;;36.57;49.97;97736.53;4128444;28;20673;-81
2022/07/25 08:44:36;;;;;;;14.57;13.37;;;;;;;36.65;49.50;97740.59;4128300;28;20635;-81
2022/07/25 08:46:42;;;;;;;14.30;13.07;;;;;;;36.69;49.19;97738.91;4111494;28;21470;-81
2022/07/25 08:48:45;;;;;;;13.80;12.60;;;;;;;36.61;49.86;97739.50;4120780;28;20698;-81
2022/07/25 08:50:49;;;;;;;14.80;13.50;;;;;;;36.63;49.66;97734.63;4126880;28;21381;-81
2022/07/25 08:52:53;;;;;;;14.67;13.47;;;;;;;36.70;49.63;97730.47;4105866;28;20638;-81
2022/07/25 08:55:18;;;;;;;14.00;12.80;;;;;;;36.78;49.66;97729.94;4122319;28;21052;-81
2022/07/25 08:57:22;;;;;;;13.73;12.63;;;;;;;36.79;49.81;97728.84;4113246;28;20648;-81
2022/07/25 08:59:25;;;;;;;15.57;14.03;;;;;;;36.77;48.81;97733.75;4111923;28;20716;-81
2022/07/25 09:01:29;;;;;;;13.80;12.60;;;;;;;36.77;48.31;97728.31;4124994;28;20636;-81
2022/07/25 09:03:39;;;;;;;14.07;12.87;;;;;;;36.74;49.92;97726.94;4120241;28;20652;-82
2022/07/25 09:05:42;;;;;;;15.40;13.90;;;;;;;36.76;48.84;97729.41;4125000;28;21251;-81
2022/07/25 09:07:45;;;;;;;14.00;12.80;;;;;;;36.77;48.09;97731.84;4106927;28;20644;-83
2022/07/25 09:09:48;;;;;;;13.03;11.90;;;;;;;36.80;49.44;97734.00;4094579;28;20633;-83
2022/07/25 09:11:51;;;;;;;13.60;12.23;;;;;;;36.75;47.97;97731.31;4108219;28;20700;-83
2022/07/25 09:13:59;;;;;;;14.00;12.63;;;;;;;36.75;47.67;97725.88;4125793;28;20690;-83
2022/07/25 09:16:04;;;;;;;15.07;13.77;;;;;;;36.60;47.92;97729.72;4107344;28;21203;-82
2022/07/25 09:18:11;;;;;;;14.00;12.90;;;;;;;36.59;48.40;97728.09;4126842;28;21083;-82
2022/07/25 09:20:20;;;;;;;13.60;12.40;;;;;;;36.61;47.66;97717.72;4128039;28;21035;-82
2022/07/25 09:22:24;;;;;;;13.10;12.00;;;;;;;36.66;48.74;97728.59;4111103;28;21079;-83
2022/07/25 09:24:27;;;;;;;10.10;9.20;;;;;;;36.75;48.98;97725.06;4127703;28;20707;-83
2022/07/25 09:26:31;;;;;;;13.83;12.63;;;;;;;36.76;48.07;97721.22;4126160;28;20636;-81
2022/07/25 09:28:40;;;;;;;15.23;13.90;;;;;;;36.81;49.00;97732.13;4128232;28;20725;-81
2022/07/25 09:30:54;;;;;;;12.87;11.87;;;;;;;36.84;48.42;97729.63;4113731;28;20679;-81